Time;durP1;ratioP1;P1;durP2;ratioP2;P2;SDS_P1;SDS_P2;PMS_P1;PMS_P2;Temp;Humidity;BMP_temperature;BMP_pressure;BME280_temperature;BME280_humidity;BME280_pressure;Samples;Min_cycle;Max_cycle;Signal;HPM_P1;HPM_P2
2023/07/18 00:00:37;;;;;;;;;;;;;;;14.30;82.38;102141.50;5062423;28;19926;-49
2023/07/18 00:03:05;;;;;;;;;;;;;;;14.30;83.08;102135.47;5064083;28;20537;-46
2023/07/18 00:05:31;;;;;;;;;;;;;;;14.29;83.30;102137.16;5042557;28;20394;-48
2023/07/18 00:07:56;;;;;;;;;;;;;;;14.29;83.22;102144.94;5061545;28;19924;-49
2023/07/18 00:10:22;;;;;;;;;;;;;;;14.25;82.88;102139.59;5059441;28;19935;-48
2023/07/18 00:12:47;;;;;;;;;;;;;;;14.20;83.24;102142.06;5045141;28;20385;-48
2023/07/18 00:15:13;;;;;;;;;;;;;;;14.18;85.20;102148.88;5061506;28;19963;-48
2023/07/18 00:17:39;;;;;;;;;;;;;;;14.15;85.74;102152.25;5062310;28;19924;-49
2023/07/18 00:20:08;;;;;;;;;;;;;;;14.13;88.42;102153.88;5063600;28;19987;-47
2023/07/18 00:22:33;;;;;;;;;;;;;;;14.09;86.57;102151.16;5057062;28;19917;-48
2023/07/18 00:24:59;;;;;;;;;;;;;;;14.06;87.87;102151.03;5060014;28;19928;-47
2023/07/18 00:27:24;;;;;;;;;;;;;;;14.00;86.35;102145.66;5057438;28;19927;-50
2023/07/18 00:29:50;;;;;;;;;;;;;;;13.95;86.52;102145.47;5058862;28;19921;-48
2023/07/18 00:32:15;;;;;;;;;;;;;;;13.91;87.56;102149.69;5060455;27;19929;-49
2023/07/18 00:34:41;;;;;;;;;;;;;;;13.88;88.10;102140.94;5059647;28;19920;-46
2023/07/18 00:37:06;;;;;;;;;;;;;;;13.82;87.53;102144.19;5059109;28;19925;-46
2023/07/18 00:39:32;;;;;;;;;;;;;;;13.79;88.44;102153.56;5061886;28;19967;-49
2023/07/18 00:41:57;;;;;;;;;;;;;;;13.76;88.38;102151.72;5061628;28;19921;-50
2023/07/18 00:44:22;;;;;;;;;;;;;;;13.71;88.75;102150.72;5044610;28;19931;-48
2023/07/18 00:46:47;;;;;;;;;;;;;;;13.67;89.08;102154.00;5062063;28;19933;-47
2023/07/18 00:49:13;;;;;;;;;;;;;;;13.62;90.34;102152.94;5060325;27;20281;-47
2023/07/18 00:51:38;;;;;;;;;;;;;;;13.59;88.68;102153.72;5062482;28;19916;-50
2023/07/18 00:54:04;;;;;;;;;;;;;;;13.55;87.76;102150.97;5058581;27;20378;-50
2023/07/18 00:56:29;;;;;;;;;;;;;;;13.53;90.08;102148.34;5058791;28;19921;-49
2023/07/18 00:58:55;;;;;;;;;;;;;;;13.51;89.91;102144.78;5059542;28;20413;-48
2023/07/18 01:01:20;;;;;;;;;;;;;;;13.50;90.19;102144.75;5059733;28;19920;-47
2023/07/18 01:03:45;;;;;;;;;;;;;;;13.50;90.97;102135.28;5057741;28;19956;-48
2023/07/18 01:06:11;;;;;;;;;;;;;;;13.49;91.58;102137.81;5059205;28;20293;-48
2023/07/18 01:08:39;;;;;;;;;;;;;;;13.47;91.35;102134.28;5059194;28;19964;-48
2023/07/18 01:11:04;;;;;;;;;;;;;;;13.45;90.48;102133.34;5058078;28;19963;-45
2023/07/18 01:13:30;;;;;;;;;;;;;;;13.42;92.15;102139.31;5056157;27;20707;-48
2023/07/18 01:15:55;;;;;;;;;;;;;;;13.39;91.57;102137.47;5054467;27;20378;-50
2023/07/18 01:18:20;;;;;;;;;;;;;;;13.35;91.27;102137.31;5061230;28;19932;-49
2023/07/18 01:20:46;;;;;;;;;;;;;;;13.35;94.61;102132.16;5059710;28;19928;-46
2023/07/18 01:23:13;;;;;;;;;;;;;;;13.35;95.01;102135.63;5055260;28;19985;-46
2023/07/18 01:25:40;;;;;;;;;;;;;;;13.35;94.44;102124.41;5046910;28;19916;-46
2023/07/18 01:28:06;;;;;;;;;;;;;;;13.33;94.10;102123.44;5065274;28;19917;-48
2023/07/18 01:30:31;;;;;;;;;;;;;;;13.30;94.66;102120.78;5063351;28;19923;-52
2023/07/18 01:32:57;;;;;;;;;;;;;;;13.29;94.79;102126.75;5063558;28;19924;-52
2023/07/18 01:35:25;;;;;;;;;;;;;;;13.29;95.65;102119.03;5058153;28;20393;-54
2023/07/18 01:37:51;;;;;;;;;;;;;;;13.30;97.42;102121.66;5062832;28;19992;-52
2023/07/18 01:40:20;;;;;;;;;;;;;;;13.31;97.27;102115.66;5063065;28;20119;-53
2023/07/18 01:42:45;;;;;;;;;;;;;;;13.31;98.29;102112.19;5064943;28;19916;-51
2023/07/18 01:45:10;;;;;;;;;;;;;;;13.29;97.36;102109.56;5061178;28;19932;-53
2023/07/18 01:47:37;;;;;;;;;;;;;;;13.26;96.59;102111.13;5063137;28;19921;-52
2023/07/18 01:50:04;;;;;;;;;;;;;;;13.24;97.88;102113.69;5060515;28;20382;-53
2023/07/18 01:52:30;;;;;;;;;;;;;;;13.23;99.92;102111.91;5046614;28;20032;-53
2023/07/18 01:54:58;;;;;;;;;;;;;;;13.24;100.00;102107.63;5061875;27;20049;-54
2023/07/18 01:57:28;;;;;;;;;;;;;;;13.22;98.72;102106.69;5063730;28;19955;-53
2023/07/18 01:59:54;;;;;;;;;;;;;;;13.21;99.07;102099.75;5063123;28;19924;-53
2023/07/18 02:02:19;;;;;;;;;;;;;;;13.18;97.80;102102.22;5058460;28;20038;-51
2023/07/18 02:04:46;;;;;;;;;;;;;;;13.16;98.41;102099.53;5063451;27;19931;-54
2023/07/18 02:07:11;;;;;;;;;;;;;;;13.11;98.74;102094.22;5062522;28;19920;-54
2023/07/18 02:09:36;;;;;;;;;;;;;;;13.08;99.13;102103.56;5061191;28;20209;-53
2023/07/18 02:12:02;;;;;;;;;;;;;;;13.06;99.76;102084.56;5064738;28;20343;-52
2023/07/18 02:14:28;;;;;;;;;;;;;;;13.06;100.00;102088.00;5061344;28;20011;-51
2023/07/18 02:16:53;;;;;;;;;;;;;;;13.07;100.00;102087.19;5062165;28;19928;-53
2023/07/18 02:19:18;;;;;;;;;;;;;;;13.04;99.11;102088.75;5046724;28;20027;-52
2023/07/18 02:21:43;;;;;;;;;;;;;;;13.03;100.00;102090.47;5066489;28;19920;-52
2023/07/18 02:24:09;;;;;;;;;;;;;;;13.02;100.00;102087.84;5064636;27;20012;-50
2023/07/18 02:26:34;;;;;;;;;;;;;;;13.03;100.00;102087.00;5061306;28;20455;-53
2023/07/18 02:28:59;;;;;;;;;;;;;;;13.04;99.23;102094.81;5064405;28;20569;-51
2023/07/18 02:31:24;;;;;;;;;;;;;;;13.03;100.00;102090.47;5061613;28;19935;-52
2023/07/18 02:33:50;;;;;;;;;;;;;;;13.01;100.00;102089.53;5059174;28;19973;-51
2023/07/18 02:36:15;;;;;;;;;;;;;;;12.99;100.00;102091.19;5063160;28;20374;-51
2023/07/18 02:38:40;;;;;;;;;;;;;;;12.94;97.55;102097.88;5062351;28;20627;-52
2023/07/18 02:41:05;;;;;;;;;;;;;;;12.89;100.00;102083.91;5059698;28;19928;-50
2023/07/18 02:43:30;;;;;;;;;;;;;;;12.84;98.08;102086.31;5046567;28;19925;-51
2023/07/18 02:45:56;;;;;;;;;;;;;;;12.83;100.00;102089.72;5066440;28;19924;-51
2023/07/18 02:48:21;;;;;;;;;;;;;;;12.77;100.00;102092.06;5063469;28;20457;-52
2023/07/18 02:50:48;;;;;;;;;;;;;;;12.74;100.00;102084.22;5060408;28;19925;-50
2023/07/18 02:53:13;;;;;;;;;;;;;;;12.70;99.68;102084.91;5061122;28;19956;-52
2023/07/18 02:55:38;;;;;;;;;;;;;;;12.67;100.00;102092.50;5059680;28;19966;-53
2023/07/18 02:58:03;;;;;;;;;;;;;;;12.64;100.00;102084.66;5057873;28;19936;-53
2023/07/18 03:00:30;;;;;;;;;;;;;;;12.63;100.00;102094.94;5061262;28;19981;-53
2023/07/18 03:02:55;;;;;;;;;;;;;;;12.60;100.00;102088.81;5058760;28;19920;-52
2023/07/18 03:05:22;;;;;;;;;;;;;;;12.59;100.00;102091.34;5063779;28;20398;-56
2023/07/18 03:07:48;;;;;;;;;;;;;;;12.56;99.76;102088.66;5060316;28;19963;-52
2023/07/18 03:10:13;;;;;;;;;;;;;;;12.54;99.11;102085.13;5062829;28;19978;-53
2023/07/18 03:12:40;;;;;;;;;;;;;;;12.53;99.18;102078.19;5065490;28;19942;-52
2023/07/18 03:15:11;;;;;;;;;;;;;;;12.50;99.42;102072.94;5062819;28;20023;-53
2023/07/18 03:17:37;;;;;;;;;;;;;;;12.47;100.00;102086.56;5059226;28;19923;-52
2023/07/18 03:20:13;;;;;;;;;;;;;;;12.45;99.15;102101.13;5059247;28;20023;-52
2023/07/18 03:22:38;;;;;;;;;;;;;;;12.44;100.00;102094.22;5061754;28;19921;-54
2023/07/18 03:25:05;;;;;;;;;;;;;;;12.42;100.00;102098.41;5054950;27;19927;-53
2023/07/18 03:27:30;;;;;;;;;;;;;;;12.40;98.02;102089.75;5065600;28;19917;-52
2023/07/18 03:29:55;;;;;;;;;;;;;;;12.40;99.19;102088.88;5061364;28;19927;-54
2023/07/18 03:32:20;;;;;;;;;;;;;;;12.38;100.00;102088.81;5061988;28;19920;-53
2023/07/18 03:34:46;;;;;;;;;;;;;;;12.37;98.61;102089.59;5063365;28;20381;-52
2023/07/18 03:37:11;;;;;;;;;;;;;;;12.35;96.88;102094.69;5061391;28;19928;-53
2023/07/18 03:39:36;;;;;;;;;;;;;;;12.33;98.56;102088.63;5062012;28;19928;-52
2023/07/18 03:42:02;;;;;;;;;;;;;;;12.30;98.21;102096.22;5061168;28;20001;-52
2023/07/18 03:44:27;;;;;;;;;;;;;;;12.23;98.07;102096.78;5058673;28;19969;-52
2023/07/18 03:46:53;;;;;;;;;;;;;;;12.19;97.13;102100.03;5054916;28;19961;-56
2023/07/18 03:49:18;;;;;;;;;;;;;;;12.17;98.02;102096.53;5058154;28;19927;-53
2023/07/18 03:51:43;;;;;;;;;;;;;;;12.14;97.81;102092.97;5053865;28;20378;-54
2023/07/18 03:54:09;;;;;;;;;;;;;;;12.12;99.05;102094.59;5058987;28;19921;-53
2023/07/18 03:56:34;;;;;;;;;;;;;;;12.11;98.27;102093.69;5058663;28;19940;-52
2023/07/18 03:58:59;;;;;;;;;;;;;;;12.10;99.38;102096.22;5054570;28;19963;-52
2023/07/18 04:01:25;;;;;;;;;;;;;;;12.10;99.45;102083.34;5045339;27;19921;-52
2023/07/18 04:03:51;;;;;;;;;;;;;;;12.10;97.46;102080.75;5051851;27;19917;-51
2023/07/18 04:06:16;;;;;;;;;;;;;;;12.11;98.91;102080.81;5054345;28;19921;-53
2023/07/18 04:08:42;;;;;;;;;;;;;;;12.11;98.26;102072.19;5057943;28;19921;-52
2023/07/18 04:11:08;;;;;;;;;;;;;;;12.15;99.38;102071.53;5055878;28;19972;-52
2023/07/18 04:13:33;;;;;;;;;;;;;;;12.15;99.45;102064.66;5061155;28;19952;-51
2023/07/18 04:15:58;;;;;;;;;;;;;;;12.19;98.02;102065.66;5041413;28;19947;-52
2023/07/18 04:18:24;;;;;;;;;;;;;;;12.22;97.98;102060.63;5058908;28;19920;-53
2023/07/18 04:20:49;;;;;;;;;;;;;;;12.23;97.75;102058.09;5037075;28;20323;-55
2023/07/18 04:23:15;;;;;;;;;;;;;;;12.22;97.20;102058.94;5059237;28;19921;-53
2023/07/18 04:25:54;;;;;;;;;;;;;;;12.25;97.61;102063.31;5053220;28;19924;-53
2023/07/18 04:28:19;;;;;;;;;;;;;;;12.26;97.58;102063.41;5038829;28;19999;-52
2023/07/18 04:30:45;;;;;;;;;;;;;;;12.29;96.39;102055.78;5057528;28;20019;-53
2023/07/18 04:33:12;;;;;;;;;;;;;;;12.33;95.50;102052.50;5057774;28;19921;-53
2023/07/18 04:35:37;;;;;;;;;;;;;;;12.41;96.55;102054.50;5058017;28;19987;-51
2023/07/18 04:38:03;;;;;;;;;;;;;;;12.78;96.35;102049.94;5054798;28;19974;-52
2023/07/18 04:40:28;;;;;;;;;;;;;;;13.48;93.55;102055.97;5039333;28;19988;-53
2023/07/18 04:42:53;;;;;;;;;;;;;;;14.16;90.22;102050.53;5038337;28;19977;-54
2023/07/18 04:45:18;;;;;;;;;;;;;;;14.98;88.05;102056.50;5054395;28;19927;-53
2023/07/18 04:47:44;;;;;;;;;;;;;;;15.86;84.61;102055.47;5055117;28;20349;-52
2023/07/18 04:50:10;;;;;;;;;;;;;;;16.38;80.82;102051.56;5056591;28;19944;-52
2023/07/18 04:52:36;;;;;;;;;;;;;;;16.54;79.42;102045.84;5063516;28;19920;-53
2023/07/18 04:55:01;;;;;;;;;;;;;;;16.68;79.60;102058.28;5065191;27;19922;-53
2023/07/18 04:57:26;;;;;;;;;;;;;;;17.05;77.83;102060.84;5063577;28;20011;-53
2023/07/18 04:59:51;;;;;;;;;;;;;;;17.20;75.70;102057.69;5060716;28;19932;-52
2023/07/18 05:02:17;;;;;;;;;;;;;;;16.80;75.08;102053.38;5048310;28;19927;-52
2023/07/18 05:04:42;;;;;;;;;;;;;;;16.40;77.15;102064.56;5074902;27;19919;-52
2023/07/18 05:07:08;;;;;;;;;;;;;;;15.95;77.78;102054.81;5040509;28;19924;-53
2023/07/18 05:09:33;;;;;;;;;;;;;;;15.60;78.89;102059.09;5060746;28;20354;-52
2023/07/18 05:11:59;;;;;;;;;;;;;;;15.48;79.90;102055.34;5061518;28;20060;-52
2023/07/18 05:14:24;;;;;;;;;;;;;;;15.64;80.01;102051.44;5062047;27;19924;-53
2023/07/18 05:16:49;;;;;;;;;;;;;;;16.08;79.55;102046.53;5049777;28;19933;-53
2023/07/18 05:19:15;;;;;;;;;;;;;;;16.77;77.77;102053.31;5056231;28;20302;-53
2023/07/18 05:21:40;;;;;;;;;;;;;;;17.43;75.17;102050.31;5055729;28;19940;-53
2023/07/18 05:24:05;;;;;;;;;;;;;;;17.87;74.05;102053.75;5052967;28;19972;-53
2023/07/18 05:26:31;;;;;;;;;;;;;;;17.90;73.99;102050.34;5054939;28;20125;-55
2023/07/18 05:28:56;;;;;;;;;;;;;;;17.96;72.62;102047.84;5055914;28;19920;-56
2023/07/18 05:31:21;;;;;;;;;;;;;;;18.27;72.61;102053.53;5054067;28;19925;-55
2023/07/18 05:33:47;;;;;;;;;;;;;;;18.75;72.16;102056.88;5059159;28;19924;-54
2023/07/18 05:36:12;;;;;;;;;;;;;;;19.27;71.15;102052.28;5058758;28;20325;-54
2023/07/18 05:38:38;;;;;;;;;;;;;;;19.47;69.71;102064.66;5056752;27;19924;-53
2023/07/18 05:41:03;;;;;;;;;;;;;;;19.61;67.82;102060.50;5059388;27;20327;-56
2023/07/18 05:43:29;;;;;;;;;;;;;;;19.75;67.95;102058.00;5058562;28;20373;-54
2023/07/18 05:45:54;;;;;;;;;;;;;;;20.01;66.14;102053.88;5036219;28;20355;-54
2023/07/18 05:48:19;;;;;;;;;;;;;;;20.28;66.46;102057.59;5055431;28;19928;-55
2023/07/18 05:50:44;;;;;;;;;;;;;;;20.28;62.48;102057.59;5054357;28;20385;-55
2023/07/18 05:53:10;;;;;;;;;;;;;;;20.18;63.06;102059.25;5054228;28;20000;-55
2023/07/18 05:55:35;;;;;;;;;;;;;;;20.28;67.33;102061.06;5035599;28;19929;-55
2023/07/18 05:58:00;;;;;;;;;;;;;;;20.43;67.22;102059.41;5035593;28;19993;-55
2023/07/18 06:00:25;;;;;;;;;;;;;;;20.47;64.73;102059.47;5055980;28;19932;-53
2023/07/18 06:02:51;;;;;;;;;;;;;;;20.66;66.72;102063.06;5054110;28;19927;-54
2023/07/18 06:05:16;;;;;;;;;;;;;;;20.62;66.27;102063.91;5057017;28;19921;-55
2023/07/18 06:07:41;;;;;;;;;;;;;;;20.50;65.71;102061.22;5037836;28;20390;-55
2023/07/18 06:10:07;;;;;;;;;;;;;;;20.40;65.24;102073.34;5062129;28;20344;-46
2023/07/18 06:12:32;;;;;;;;;;;;;;;20.38;64.36;102068.94;5059425;28;19924;-47
2023/07/18 06:14:57;;;;;;;;;;;;;;;20.36;64.54;102074.16;5039503;28;20331;-47
2023/07/18 06:17:23;;;;;;;;;;;;;;;20.62;61.43;102066.53;5059024;28;19921;-49
2023/07/18 06:19:48;;;;;;;;;;;;;;;20.68;66.39;102063.94;5058697;27;19931;-48
2023/07/18 06:22:13;;;;;;;;;;;;;;;20.79;63.06;102062.25;5056327;28;20441;-48
2023/07/18 06:24:39;;;;;;;;;;;;;;;20.95;64.29;102063.22;5061424;28;19912;-51
2023/07/18 06:27:04;;;;;;;;;;;;;;;21.24;65.00;102065.06;5063527;28;19924;-50
2023/07/18 06:29:30;;;;;;;;;;;;;;;21.39;62.16;102059.91;5066084;28;19920;-50
2023/07/18 06:31:56;;;;;;;;;;;;;;;21.41;62.88;102059.03;5066358;28;19917;-48
2023/07/18 06:34:22;;;;;;;;;;;;;;;21.56;61.69;102054.72;5065937;28;20003;-55
2023/07/18 06:36:47;;;;;;;;;;;;;;;21.58;59.19;102058.19;5062799;28;20706;-56
2023/07/18 06:39:13;;;;;;;;;;;;;;;21.54;60.46;102059.06;5060175;28;19985;-56
2023/07/18 06:41:39;;;;;;;;;;;;;;;21.38;60.98;102061.66;5061248;28;19960;-55
2023/07/18 06:44:08;;;;;;;;;;;;;;;21.45;61.96;102066.88;5059026;28;19980;-55
2023/07/18 06:46:34;;;;;;;;;;;;;;;21.56;57.45;102066.03;5058248;28;19931;-55
2023/07/18 06:48:59;;;;;;;;;;;;;;;21.69;59.80;102075.66;5058994;28;19916;-54
2023/07/18 06:51:24;;;;;;;;;;;;;;;21.69;59.95;102059.09;5061506;28;19998;-55
2023/07/18 06:53:51;;;;;;;;;;;;;;;21.76;59.24;102060.81;5056630;28;19925;-55
2023/07/18 06:56:17;;;;;;;;;;;;;;;21.72;58.83;102061.72;5059970;28;19920;-55
2023/07/18 06:58:42;;;;;;;;;;;;;;;21.78;60.33;102052.97;5056962;28;20401;-55
2023/07/18 07:01:07;;;;;;;;;;;;;;;21.92;58.70;102053.88;5055030;28;19928;-55
2023/07/18 07:03:33;;;;;;;;;;;;;;;21.90;58.86;102051.25;5060081;28;19920;-55
2023/07/18 07:05:58;;;;;;;;;;;;;;;21.95;57.27;102049.47;5060856;27;19921;-53
2023/07/18 07:08:24;;;;;;;;;;;;;;;22.02;57.73;102047.72;5066577;27;19917;-55
2023/07/18 07:11:02;;;;;;;;;;;;;;;21.94;54.50;102045.13;5063082;28;19932;-55
2023/07/18 07:13:27;;;;;;;;;;;;;;;21.88;58.23;102042.50;5056272;28;20374;-53
2023/07/18 07:15:52;;;;;;;;;;;;;;;21.85;57.56;102045.13;5057383;28;19927;-55
2023/07/18 07:18:17;;;;;;;;;;;;;;;21.64;56.64;102045.97;5044760;28;20138;-55
2023/07/18 07:20:43;;;;;;;;;;;;;;;21.57;57.32;102054.69;5045270;28;19928;-55
2023/07/18 07:23:09;;;;;;;;;;;;;;;21.58;57.50;102051.22;5057021;28;19917;-55
2023/07/18 07:25:34;;;;;;;;;;;;;;;21.65;56.57;102047.72;5064282;28;19927;-55
2023/07/18 07:27:59;;;;;;;;;;;;;;;21.74;54.87;102049.50;5065964;28;20418;-56
2023/07/18 07:30:25;;;;;;;;;;;;;;;21.84;55.24;102042.50;5067203;28;19920;-55
2023/07/18 07:32:53;;;;;;;;;;;;;;;22.11;56.49;102036.44;5064738;28;20019;-55
2023/07/18 07:35:22;;;;;;;;;;;;;;;21.99;54.58;102042.50;5062439;28;19916;-55
2023/07/18 07:37:50;;;;;;;;;;;;;;;22.03;56.39;102041.66;5064180;28;20289;-54
2023/07/18 07:40:15;;;;;;;;;;;;;;;21.93;54.32;102046.00;5064716;28;20016;-54
2023/07/18 07:42:42;;;;;;;;;;;;;;;21.85;54.04;102044.25;5059295;27;20015;-49
2023/07/18 07:45:07;;;;;;;;;;;;;;;21.76;55.89;102046.88;5058783;27;19917;-48
2023/07/18 07:47:33;;;;;;;;;;;;;;;21.69;56.31;102048.59;5063251;28;19968;-51
2023/07/18 07:49:59;;;;;;;;;;;;;;;21.69;56.36;102046.00;5052931;28;20285;-48
2023/07/18 07:52:24;;;;;;;;;;;;;;;21.74;55.46;102031.16;5058693;28;20012;-49
2023/07/18 07:54:49;;;;;;;;;;;;;;;21.64;53.60;102047.72;5054905;28;19921;-50
2023/07/18 07:57:15;;;;;;;;;;;;;;;21.74;53.78;102040.75;5063874;27;19993;-49
2023/07/18 07:59:42;;;;;;;;;;;;;;;21.91;54.39;102039.91;5045405;28;19935;-52
2023/07/18 08:02:07;;;;;;;;;;;;;;;22.02;53.79;102037.25;5064397;28;19920;-52
2023/07/18 08:04:33;;;;;;;;;;;;;;;22.01;52.63;102032.03;5054574;27;20306;-49
2023/07/18 08:06:58;;;;;;;;;;;;;;;21.99;50.10;102041.63;5063969;27;19934;-51
2023/07/18 08:09:23;;;;;;;;;;;;;;;21.92;50.85;102039.03;5056099;27;19928;-52
2023/07/18 08:11:49;;;;;;;;;;;;;;;22.04;51.22;102035.53;5052989;27;19965;-52
2023/07/18 08:14:15;;;;;;;;;;;;;;;22.17;51.39;102037.28;5054001;28;20038;-52
2023/07/18 08:16:41;;;;;;;;;;;;;;;22.29;50.22;102032.91;5057027;28;20306;-51
2023/07/18 08:19:07;;;;;;;;;;;;;;;22.37;52.62;102032.00;5056607;28;19932;-55
2023/07/18 08:21:33;;;;;;;;;;;;;;;22.48;50.20;102030.22;5059236;28;19925;-56
2023/07/18 08:23:58;;;;;;;;;;;;;;;22.49;50.82;102031.97;5049066;27;19928;-54
2023/07/18 08:26:23;;;;;;;;;;;;;;;22.39;49.74;102032.03;5050661;28;19983;-55
2023/07/18 08:28:49;;;;;;;;;;;;;;;22.36;50.55;102032.00;5054328;28;19968;-55
2023/07/18 08:31:14;;;;;;;;;;;;;;;22.45;51.21;102027.63;5056444;27;20367;-56
2023/07/18 08:33:40;;;;;;;;;;;;;;;22.46;49.71;102023.25;5054632;27;20374;-56
2023/07/18 08:36:05;;;;;;;;;;;;;;;22.56;49.41;102024.09;5038986;28;20393;-56
2023/07/18 08:38:30;;;;;;;;;;;;;;;22.35;46.38;102020.66;5054584;28;19991;-56
2023/07/18 08:40:58;;;;;;;;;;;;;;;22.09;48.48;102020.72;5041326;28;20290;-55
2023/07/18 08:43:23;;;;;;;;;;;;;;;21.91;46.68;102025.94;5058368;27;20323;-55
2023/07/18 08:45:50;;;;;;;;;;;;;;;21.76;48.69;102013.69;5050207;28;19933;-52
2023/07/18 08:48:15;;;;;;;;;;;;;;;22.02;49.84;102015.44;5057844;28;19928;-53
2023/07/18 08:50:41;;;;;;;;;;;;;;;22.29;49.62;102010.19;5040416;28;19924;-53
2023/07/18 08:53:06;;;;;;;;;;;;;;;22.54;46.95;102007.50;5053020;28;19924;-50
2023/07/18 08:55:32;;;;;;;;;;;;;;;22.58;48.66;102009.25;5057010;28;19924;-52
2023/07/18 08:57:58;;;;;;;;;;;;;;;22.74;48.49;101998.66;5057025;27;20338;-50
2023/07/18 09:00:25;;;;;;;;;;;;;;;22.87;47.77;102003.91;5054399;28;19971;-51
2023/07/18 09:02:50;;;;;;;;;;;;;;;22.90;47.71;101994.28;5053149;27;19920;-49
2023/07/18 09:05:28;;;;;;;;;;;;;;;22.94;48.51;101992.53;5058728;28;20376;-51
2023/07/18 09:07:57;;;;;;;;;;;;;;;22.93;45.66;101994.28;5053986;28;19917;-52
2023/07/18 09:10:23;;;;;;;;;;;;;;;22.90;46.29;101989.03;5057358;28;20398;-49
2023/07/18 09:12:49;;;;;;;;;;;;;;;22.89;47.22;101991.66;5053157;28;19945;-51
2023/07/18 09:15:19;;;;;;;;;;;;;;;22.73;46.25;101990.81;5055299;27;21525;-54
2023/07/18 09:17:47;;;;;;;;;;;;;;;22.72;47.29;101979.47;5054615;28;19930;-54
2023/07/18 09:20:16;;;;;;;;;;;;;;;22.75;47.82;101983.81;5061433;27;19995;-55
2023/07/18 09:22:41;;;;;;;;;;;;;;;22.82;47.41;101980.31;5050463;27;19960;-53
2023/07/18 09:25:07;;;;;;;;;;;;;;;22.93;46.15;101977.63;5054730;28;19967;-53
2023/07/18 09:27:35;;;;;;;;;;;;;;;22.92;45.57;101968.91;5053121;27;19924;-53
2023/07/18 09:30:00;;;;;;;;;;;;;;;22.77;47.86;101961.09;5051381;27;19924;-54
2023/07/18 09:32:25;;;;;;;;;;;;;;;22.79;47.04;101961.09;5051705;28;20295;-52
2023/07/18 09:34:52;;;;;;;;;;;;;;;22.81;43.92;101959.31;5051973;27;21270;-54
2023/07/18 09:37:18;;;;;;;;;;;;;;;22.77;43.84;101966.34;5048853;28;20438;-55
2023/07/18 09:39:43;;;;;;;;;;;;;;;22.74;43.70;101966.34;5051250;27;19928;-51
2023/07/18 09:42:10;;;;;;;;;;;;;;;22.78;45.39;101965.44;5051451;28;20290;-52
2023/07/18 09:44:35;;;;;;;;;;;;;;;22.87;43.52;101968.06;5053295;28;19924;-52
2023/07/18 09:47:00;;;;;;;;;;;;;;;22.84;43.83;101962.81;5053713;28;20003;-52
2023/07/18 09:49:26;;;;;;;;;;;;;;;22.74;44.64;101971.59;5054450;28;19936;-51
2023/07/18 09:52:04;;;;;;;;;;;;;;;22.60;44.18;101962.91;5055347;28;19921;-50
2023/07/18 09:54:30;;;;;;;;;;;;;;;22.54;44.65;101966.44;5054815;28;20433;-50
2023/07/18 09:56:58;;;;;;;;;;;;;;;22.57;43.65;101970.78;5053905;27;19946;-52
2023/07/18 09:59:25;;;;;;;;;;;;;;;22.68;45.33;101962.00;5054711;28;19937;-50
2023/07/18 10:01:51;;;;;;;;;;;;;;;22.78;43.78;101965.44;5048745;28;19962;-49
2023/07/18 10:04:18;;;;;;;;;;;;;;;22.90;43.61;101956.69;5054713;28;19925;-52
2023/07/18 10:06:44;;;;;;;;;;;;;;;22.95;43.49;101955.78;5053364;27;19916;-51
2023/07/18 10:09:09;;;;;;;;;;;;;;;22.98;42.85;101953.13;5056844;28;19925;-51
2023/07/18 10:12:10;;;;;;;;;;;;;;;22.93;41.39;101952.31;5052763;28;19924;-52
2023/07/18 10:14:41;;;;;;;;;;;;;;;22.97;42.45;101945.28;5075208;28;19920;-52
2023/07/18 10:17:06;;;;;;;;;;;;;;;23.03;42.09;101942.63;5050446;27;20239;-51
2023/07/18 10:19:45;;;;;;;;;;;;;;;23.14;42.73;101937.31;5052599;28;19924;-52
2023/07/18 10:22:10;;;;;;;;;;;;;;;23.22;41.56;101927.63;5053935;28;19990;-53
2023/07/18 10:24:36;;;;;;;;;;;;;;;23.21;40.75;101920.63;5036938;28;20342;-51
2023/07/18 10:27:06;;;;;;;;;;;;;;;23.09;41.34;101915.47;5052692;28;19929;-52
2023/07/18 10:29:32;;;;;;;;;;;;;;;22.98;42.41;101919.03;5052625;28;20056;-50
2023/07/18 10:31:59;;;;;;;;;;;;;;;22.83;43.44;101913.84;5051522;28;19916;-50
2023/07/18 10:34:24;;;;;;;;;;;;;;;22.81;42.47;101905.13;5052884;28;19928;-49
2023/07/18 10:36:57;;;;;;;;;;;;;;;22.89;43.51;101910.38;5052528;28;21218;-52
2023/07/18 10:39:37;;;;;;;;;;;;;;;22.97;42.35;101908.56;5050545;28;20028;-55
2023/07/18 10:42:16;;;;;;;;;;;;;;;23.15;41.49;101897.94;5052740;28;20313;-52
2023/07/18 10:44:41;;;;;;;;;;;;;;;23.25;42.50;101893.50;5054668;28;19924;-53
2023/07/18 10:47:16;;;;;;;;;;;;;;;23.33;40.00;101894.28;5051363;28;20382;-53
2023/07/18 10:49:42;;;;;;;;;;;;;;;23.32;40.03;101892.56;5048940;27;20157;-52
2023/07/18 10:52:07;;;;;;;;;;;;;;;23.22;40.98;101896.13;5048642;28;20377;-52
2023/07/18 10:54:32;;;;;;;;;;;;;;;23.38;40.98;101895.13;5054599;27;20390;-52
2023/07/18 10:56:58;;;;;;;;;;;;;;;23.50;40.77;101889.75;5055275;28;19928;-53
2023/07/18 10:59:23;;;;;;;;;;;;;;;23.62;40.42;101890.56;5049414;28;19944;-53
2023/07/18 11:01:49;;;;;;;;;;;;;;;23.64;41.20;101886.16;5052014;28;19925;-52
2023/07/18 11:04:14;;;;;;;;;;;;;;;23.54;41.18;101883.63;5053287;28;19932;-50
2023/07/18 11:06:49;;;;;;;;;;;;;;;23.58;41.24;101875.69;5050942;28;19988;-51
2023/07/18 11:09:15;;;;;;;;;;;;;;;23.61;41.75;101879.16;5051751;28;19928;-51
2023/07/18 11:11:40;;;;;;;;;;;;;;;23.79;42.52;101880.78;5053638;28;19928;-50
2023/07/18 11:14:05;;;;;;;;;;;;;;;24.00;41.16;101882.28;5052221;28;19928;-50
2023/07/18 11:16:31;;;;;;;;;;;;;;;23.92;39.97;101884.13;5052413;28;19929;-47
2023/07/18 11:18:59;;;;;;;;;;;;;;;23.97;39.72;101888.44;5040737;28;19974;-49
2023/07/18 11:21:24;;;;;;;;;;;;;;;24.07;38.05;101892.69;5057257;28;19925;-49
2023/07/18 11:23:49;;;;;;;;;;;;;;;24.19;38.29;101883.78;5063415;27;19928;-50
2023/07/18 11:26:16;;;;;;;;;;;;;;;24.28;37.80;101874.94;5067623;28;20012;-49
2023/07/18 11:28:42;;;;;;;;;;;;;;;24.37;36.76;101872.22;5057110;28;19975;-46
2023/07/18 11:31:26;;;;;;;;;;;;;;;24.41;35.44;101871.28;5034077;28;20395;-47
2023/07/18 11:33:58;;;;;;;;;;;;;;;24.50;37.31;101858.00;5048529;28;19960;-49
2023/07/18 11:36:33;;;;;;;;;;;;;;;24.63;37.73;101840.28;5051770;28;20053;-51
2023/07/18 11:39:00;;;;;;;;;;;;;;;24.80;37.16;101851.44;5051047;28;20020;-48
2023/07/18 11:41:35;;;;;;;;;;;;;;;24.98;35.53;101855.53;5050325;28;19924;-51
2023/07/18 11:44:04;;;;;;;;;;;;;;;24.95;35.57;101863.50;5055910;28;20387;-50
2023/07/18 11:46:35;;;;;;;;;;;;;;;25.04;35.53;101858.06;5052154;28;19928;-52
2023/07/18 11:49:01;;;;;;;;;;;;;;;24.87;34.01;101852.19;5035271;28;19920;-49
2023/07/18 11:51:27;;;;;;;;;;;;;;;24.60;37.83;101842.97;5051920;28;19924;-50
2023/07/18 11:53:53;;;;;;;;;;;;;;;24.40;37.27;101840.66;5051009;28;20382;-51
2023/07/18 11:56:19;;;;;;;;;;;;;;;24.53;38.27;101836.94;5051558;28;19928;-49
2023/07/18 11:58:44;;;;;;;;;;;;;;;24.75;38.42;101836.59;5047684;27;20287;-47
2023/07/18 12:01:09;;;;;;;;;;;;;;;24.95;36.08;101836.31;5051908;28;19928;-51
2023/07/18 12:03:36;;;;;;;;;;;;;;;25.01;37.42;101842.34;5054355;28;19940;-47
2023/07/18 12:06:03;;;;;;;;;;;;;;;25.02;37.74;101825.66;5050272;28;20508;-49
2023/07/18 12:08:28;;;;;;;;;;;;;;;25.01;36.21;101823.06;5052281;28;20488;-49
2023/07/18 12:10:53;;;;;;;;;;;;;;;25.07;36.32;101823.00;5054965;28;19951;-47
2023/07/18 12:13:19;;;;;;;;;;;;;;;25.20;35.23;101826.28;5052839;28;19924;-48
2023/07/18 12:15:44;;;;;;;;;;;;;;;25.23;36.77;101842.00;5055688;28;19931;-48
2023/07/18 12:18:11;;;;;;;;;;;;;;;25.18;35.44;101835.94;5054848;28;20359;-51
2023/07/18 12:20:36;;;;;;;;;;;;;;;25.11;37.06;101841.31;5053759;28;19920;-48
2023/07/18 12:23:02;;;;;;;;;;;;;;;25.30;36.40;101838.34;5052882;28;19927;-48
2023/07/18 12:25:31;;;;;;;;;;;;;;;25.55;34.57;101834.41;5037448;28;20031;-46
2023/07/18 12:27:56;;;;;;;;;;;;;;;25.55;35.74;101829.13;5048156;28;19928;-51
2023/07/18 12:30:22;;;;;;;;;;;;;;;25.55;35.27;101829.13;5036100;28;19924;-51